Canton, GA

3:41 PM EST on November 20, 2019 (GMT -0500)
Canton

Weather History for KCNI - October, 2019

Change the Weather History Date:

Tuesday, October 22, 2019

  Actual Average (KMGE) Record (KMGE)
Temperature  
Mean Temperature 60 °F -  
Max Temperature 68 °F 68 °F 80 °F (2000)
Min Temperature 51 °F 49 °F 37 °F (2018)
Degree Days  
Heating Degree Days 6    
Growing Degree Days 10 (Base 50)    
Moisture  
Dew Point 48 °F    
Average Humidity 66    
Maximum Humidity 100    
Minimum Humidity 26    
Precipitation  
Precipitation 0.00 in - - ()
Sea Level Pressure  
Sea Level Pressure 29.97 in    
Wind  
Wind Speed 5 mph (WNW)    
Max Wind Speed 18 mph    
Max Gust Speed 26 mph    
Visibility 9 miles    
Events Rain    
Averages and records for this station are not official NWS values.
T = Trace of Precipitation, MM = Missing Value Source: NWS Daily Summary

Daily Weather History Graph

Daily Weather History Graph

Search for Another Location

Airport or City:

Astronomy

Oct. 22, 2019 Rise Set
Actual Time 7:48 AM EDT 6:55 PM EDT
Civil Twilight 7:23 AM EDT 7:20 PM EDT
Nautical Twilight 6:53 AM EDT 7:49 PM EDT
Astronomical Twilight 6:24 AM EDT 8:19 PM EDT
Moon 1:19 AM EDT (10/22) 3:43 PM EDT (10/22)
Length of Visible Light 11h 57m
Length of Day
11h 06m
Last Quarter, 37% of the Moon is Illuminated
Oct 22
Last Quarter
Oct 27
New
Nov 4
First Quarter
Nov 12
Full
Nov 19
Last Quarter

Hourly Weather History & Observations

Time (EDT) Temp. Dew Point Humidity Pressure Visibility Wind Dir Wind Speed Gust Speed Precip Events Conditions
12:10 AM 64.4 °F 64.4 °F 100% 29.95 in 7.0 mi East 3.5 mph - N/A   Mostly Cloudy
12:30 AM 64.4 °F 64.4 °F 100% 29.94 in 7.0 mi East 4.6 mph - N/A   Overcast
12:50 AM 64.4 °F 64.4 °F 100% 29.95 in 5.0 mi Calm Calm - N/A   Overcast
1:30 AM 64.4 °F 64.4 °F 100% 29.93 in 5.0 mi ENE 3.5 mph - N/A   Overcast
1:50 AM 64.4 °F 64.4 °F 100% 29.93 in 5.0 mi Calm Calm - N/A   Overcast
2:10 AM 64.4 °F 64.4 °F 100% 29.91 in 5.0 mi ENE 3.5 mph - N/A   Overcast
2:30 AM 64.4 °F 64.4 °F 100% 29.91 in 7.0 mi Calm Calm - N/A   Mostly Cloudy
2:50 AM 64.4 °F 64.4 °F 100% 29.91 in 7.0 mi East 5.8 mph - N/A   Overcast
3:10 AM 64.4 °F 64.4 °F 100% 29.91 in 10.0 mi ESE 4.6 mph - N/A   Overcast
3:30 AM 64.4 °F 64.4 °F 100% 29.90 in 7.0 mi Calm Calm - N/A   Overcast
3:50 AM 64.4 °F 64.4 °F 100% 29.89 in 7.0 mi Calm Calm - N/A   Overcast
4:10 AM 64.4 °F 64.4 °F 100% 29.89 in 10.0 mi Calm Calm - N/A   Overcast
4:30 AM 64.4 °F 64.4 °F 100% 29.88 in 7.0 mi Calm Calm - N/A   Overcast
4:50 AM 64.4 °F 64.4 °F 100% 29.88 in 10.0 mi SE 3.5 mph - N/A   Overcast
5:10 AM 64.4 °F 64.4 °F 100% 29.88 in 10.0 mi Calm Calm - N/A   Overcast
5:30 AM 64.4 °F 64.4 °F 100% 29.88 in 10.0 mi South 3.5 mph - N/A   Overcast
5:50 AM 66.2 °F 66.2 °F 100% 29.88 in 10.0 mi SW 5.8 mph - N/A   Overcast
6:10 AM 64.4 °F 62.6 °F 94% 29.89 in 5.0 mi WNW 18.4 mph 26.5 mph N/A Rain Light Rain
6:30 AM 59.0 °F 59.0 °F 100% 29.91 in 5.0 mi NW 8.1 mph 17.3 mph N/A Rain Rain
6:50 AM 59.0 °F 59.0 °F 100% 29.92 in 5.0 mi WNW 9.2 mph 18.4 mph N/A Rain Rain
7:10 AM 59.0 °F 59.0 °F 100% 29.91 in 7.0 mi NW 6.9 mph 18.4 mph N/A Rain Light Rain
7:30 AM 57.2 °F 57.2 °F 100% 29.94 in 7.0 mi West 5.8 mph - N/A   Drizzle
7:50 AM 57.2 °F 55.4 °F 94% 29.94 in 10.0 mi WNW 5.8 mph - N/A   Drizzle
8:10 AM 57.2 °F 55.4 °F 94% 29.95 in 10.0 mi WNW 11.5 mph - N/A   Overcast
8:30 AM 57.2 °F 55.4 °F 94% 29.96 in 10.0 mi West 8.1 mph - N/A   Overcast
8:50 AM 57.2 °F 55.4 °F 94% 29.97 in 10.0 mi WNW 4.6 mph - N/A Rain Light Rain
9:10 AM 57.2 °F 57.2 °F 100% 29.97 in 10.0 mi WNW 6.9 mph - N/A   Overcast
9:30 AM 59.0 °F 57.2 °F 94% 29.98 in 10.0 mi WNW 5.8 mph - N/A   Overcast
9:50 AM 59.0 °F 57.2 °F 94% 29.98 in 10.0 mi WNW 6.9 mph - N/A   Mostly Cloudy
10:10 AM 60.8 °F 57.2 °F 88% 29.99 in 10.0 mi WNW 6.9 mph - N/A   Mostly Cloudy
10:30 AM 60.8 °F 55.4 °F 82% 29.99 in 10.0 mi West 6.9 mph - N/A   Mostly Cloudy
10:50 AM 60.8 °F 55.4 °F 82% 29.99 in 10.0 mi West 8.1 mph - N/A   Scattered Clouds
11:10 AM 62.6 °F 53.6 °F 72% 30.00 in 10.0 mi West 9.2 mph - N/A   Scattered Clouds
11:30 AM 62.6 °F 50.0 °F 63% 30.00 in 10.0 mi West 12.7 mph 20.7 mph N/A   Mostly Cloudy
11:50 AM 64.4 °F 50.0 °F 59% 30.00 in 10.0 mi West 8.1 mph 16.1 mph N/A   Mostly Cloudy
12:10 PM 64.4 °F 46.4 °F 52% 30.00 in 10.0 mi WNW 9.2 mph 17.3 mph N/A   Scattered Clouds
12:30 PM 64.4 °F 44.6 °F 49% 30.00 in 10.0 mi WNW 5.8 mph - N/A   Clear
12:50 PM 66.2 °F 42.8 °F 43% 30.00 in 10.0 mi NW 10.4 mph 17.3 mph N/A   Clear
1:10 PM 68.0 °F 42.8 °F 40% 29.99 in 10.0 mi West 12.7 mph 18.4 mph N/A   Clear
1:30 PM 68.0 °F 39.2 °F 35% 29.98 in 10.0 mi West 13.8 mph 21.9 mph N/A   Clear
1:50 PM 68.0 °F 41.0 °F 37% 29.97 in 10.0 mi WNW 9.2 mph 17.3 mph N/A   Clear
2:10 PM 68.0 °F 37.4 °F 33% 29.97 in 10.0 mi West 8.1 mph 21.9 mph N/A   Clear
2:30 PM 68.0 °F 37.4 °F 33% 29.96 in 10.0 mi WNW 15.0 mph 18.4 mph N/A   Clear
2:50 PM 68.0 °F 35.6 °F 30% 29.96 in 10.0 mi WNW 15.0 mph 20.7 mph N/A   Clear
3:10 PM 68.0 °F 33.8 °F 28% 29.97 in 10.0 mi West 13.8 mph 20.7 mph N/A   Clear
3:30 PM 68.0 °F 35.6 °F 30% 29.96 in 10.0 mi WNW 13.8 mph 20.7 mph N/A   Clear
3:50 PM 68.0 °F 32.0 °F 26% 29.97 in 10.0 mi West 15.0 mph 19.6 mph N/A   Clear
4:10 PM 68.0 °F 32.0 °F 26% 29.97 in 10.0 mi West 11.5 mph 18.4 mph N/A   Clear
4:30 PM 68.0 °F 32.0 °F 26% 29.98 in 10.0 mi West 9.2 mph 21.9 mph N/A   Clear
4:50 PM 68.0 °F 32.0 °F 26% 29.98 in 10.0 mi West 11.5 mph 19.6 mph N/A   Clear
5:10 PM 68.0 °F 32.0 °F 26% 29.98 in 10.0 mi WNW 10.4 mph 16.1 mph N/A   Clear
5:30 PM 68.0 °F 32.0 °F 26% 29.98 in 10.0 mi West 9.2 mph 16.1 mph N/A   Clear
5:50 PM 66.2 °F 32.0 °F 28% 29.99 in 10.0 mi West 8.1 mph - N/A   Clear
6:10 PM 64.4 °F 33.8 °F 32% 29.99 in 10.0 mi West 5.8 mph - N/A   Clear
6:30 PM 64.4 °F 32.0 °F 30% 29.99 in 10.0 mi West 5.8 mph - N/A   Clear
6:50 PM 62.6 °F 32.0 °F 32% 30.00 in 10.0 mi Calm Calm - N/A   Clear
7:10 PM 62.6 °F 32.0 °F 32% 30.01 in 10.0 mi West 4.6 mph - N/A   Clear
7:30 PM 60.8 °F 32.0 °F 34% 30.01 in 10.0 mi WSW 5.8 mph - N/A   Clear
7:50 PM 60.8 °F 32.0 °F 34% 30.02 in 10.0 mi West 3.5 mph - N/A   Clear
8:10 PM 59.0 °F 33.8 °F 39% 30.03 in 10.0 mi West 3.5 mph - N/A   Clear
8:30 PM 59.0 °F 33.8 °F 39% 30.03 in 10.0 mi West 4.6 mph - N/A   Clear
8:50 PM 57.2 °F 35.6 °F 44% 30.03 in 10.0 mi WNW 3.5 mph - N/A   Clear
9:10 PM 57.2 °F 35.6 °F 44% 30.04 in 10.0 mi Calm Calm - N/A   Clear
9:30 PM 55.4 °F 35.6 °F 47% 30.04 in 10.0 mi WNW 3.5 mph - N/A   Clear
9:50 PM 53.6 °F 37.4 °F 54% 30.05 in 10.0 mi WNW 3.5 mph - N/A   Clear
10:30 PM 53.6 °F 37.4 °F 54% 30.08 in 10.0 mi WNW 5.8 mph - N/A   Clear
10:50 PM 53.6 °F 37.4 °F 54% 30.08 in 10.0 mi WNW 6.9 mph - N/A   Clear
11:10 PM 51.8 °F 37.4 °F 58% 30.09 in 10.0 mi WNW 6.9 mph - N/A   Clear
11:30 PM 53.6 °F 37.4 °F 54% 30.09 in 10.0 mi WNW 5.8 mph - N/A   Clear
11:50 PM 51.8 °F 39.2 °F 62% 30.10 in 10.0 mi WNW 6.9 mph - N/A   Clear